Time;durP1;ratioP1;P1;durP2;ratioP2;P2;SDS_P1;SDS_P2;PMS_P1;PMS_P2;Temp;Humidity;BMP_temperature;BMP_pressure;BME280_temperature;BME280_humidity;BME280_pressure;Samples;Min_cycle;Max_cycle;Signal;HPM_P1;HPM_P2
2022/07/13 00:00:06;;;;;;;3.70;1.40;;;21.70;99.90;;;;;;4885260;29;20433;-77
2022/07/13 00:02:50;;;;;;;3.13;1.35;;;21.70;99.90;;;;;;4848813;29;20469;-77
2022/07/13 00:05:34;;;;;;;3.13;1.60;;;21.80;99.90;;;;;;4853921;29;20529;-77
2022/07/13 00:08:18;;;;;;;2.17;1.37;;;21.80;99.90;;;;;;4854929;29;20417;-77
2022/07/13 00:11:02;;;;;;;2.78;1.52;;;21.80;99.90;;;;;;4868374;29;20417;-77
2022/07/13 00:13:46;;;;;;;3.58;1.25;;;21.70;99.90;;;;;;4860757;29;20488;-76
2022/07/13 00:16:31;;;;;;;2.75;1.40;;;21.80;99.90;;;;;;4853047;29;20415;-76
2022/07/13 00:19:15;;;;;;;1.73;1.50;;;21.70;99.90;;;;;;4867045;29;20421;-78
2022/07/13 00:21:59;;;;;;;2.63;1.40;;;21.70;99.90;;;;;;4849412;29;20423;-77
2022/07/13 00:24:43;;;;;;;1.50;1.40;;;21.70;99.90;;;;;;4848541;29;20430;-78
2022/07/13 00:27:27;;;;;;;1.98;1.33;;;21.70;99.90;;;;;;4840814;29;20934;-79
2022/07/13 00:30:11;;;;;;;3.80;1.25;;;21.70;99.90;;;;;;4873103;29;20432;-79
2022/07/13 00:32:55;;;;;;;2.65;1.40;;;21.60;99.90;;;;;;4849511;29;20452;-79
2022/07/13 00:35:40;;;;;;;1.98;1.20;;;21.60;99.90;;;;;;4860986;29;20968;-77
2022/07/13 00:38:23;;;;;;;1.85;1.50;;;21.60;99.90;;;;;;4850777;29;20425;-77
2022/07/13 00:41:08;;;;;;;2.88;1.25;;;21.60;99.90;;;;;;4860727;29;20924;-76
2022/07/13 00:43:52;;;;;;;2.92;1.30;;;21.50;99.90;;;;;;4850410;29;20550;-77
2022/07/13 00:46:39;;;;;;;1.90;1.25;;;21.50;99.90;;;;;;4881755;29;20438;-79
2022/07/13 00:49:24;;;;;;;4.50;1.40;;;21.50;99.90;;;;;;4842090;29;20486;-78
2022/07/13 00:52:09;;;;;;;1.85;1.38;;;21.50;99.90;;;;;;4859657;29;20474;-79
2022/07/13 00:54:54;;;;;;;3.23;1.40;;;21.50;99.90;;;;;;4855169;29;20453;-79
2022/07/13 00:57:38;;;;;;;1.60;1.40;;;21.40;99.90;;;;;;4860092;29;20563;-79
2022/07/13 01:00:23;;;;;;;2.03;1.40;;;21.40;99.90;;;;;;4858944;29;20450;-79
2022/07/13 01:03:08;;;;;;;3.40;1.70;;;21.40;99.90;;;;;;4839721;29;20863;-79
2022/07/13 01:05:52;;;;;;;1.70;1.60;;;21.40;99.90;;;;;;4843970;29;20465;-79
2022/07/13 01:08:37;;;;;;;2.38;1.92;;;21.30;99.90;;;;;;4861077;29;20482;-78
2022/07/13 01:11:21;;;;;;;2.03;1.60;;;21.30;99.90;;;;;;4861771;29;20473;-78
2022/07/13 01:14:06;;;;;;;1.52;1.42;;;21.30;99.90;;;;;;4850885;29;20522;-79
2022/07/13 01:16:50;;;;;;;3.07;1.70;;;21.20;99.90;;;;;;4896779;29;20514;-78
2022/07/13 01:19:35;;;;;;;2.10;1.90;;;21.20;99.90;;;;;;4838795;29;20521;-78
2022/07/13 01:22:22;;;;;;;2.83;1.60;;;21.20;99.90;;;;;;4842900;29;20489;-78
2022/07/13 01:25:08;;;;;;;2.45;1.63;;;21.10;99.90;;;;;;4880818;29;20448;-78
2022/07/13 01:27:52;;;;;;;2.80;1.70;;;21.10;99.90;;;;;;4856603;29;20541;-78
2022/07/13 01:30:36;;;;;;;1.75;1.50;;;21.10;99.90;;;;;;4860854;29;20897;-79
2022/07/13 01:33:21;;;;;;;1.75;1.58;;;21.20;99.90;;;;;;4839623;29;20441;-79
2022/07/13 01:36:05;;;;;;;2.90;1.60;;;21.10;99.90;;;;;;4867686;29;20439;-77
2022/07/13 01:38:49;;;;;;;3.58;1.80;;;21.10;99.90;;;;;;4863904;29;20481;-77
2022/07/13 01:41:34;;;;;;;1.92;1.60;;;21.10;99.90;;;;;;4853333;29;20429;-77
2022/07/13 01:44:18;;;;;;;2.00;1.50;;;21.10;99.90;;;;;;4839128;29;20427;-76
2022/07/13 01:47:09;;;;;;;1.55;1.42;;;21.20;99.90;;;;;;4861232;29;20429;-77
2022/07/13 01:49:53;;;;;;;2.42;1.52;;;21.20;99.90;;;;;;4842194;29;20493;-77
2022/07/13 01:52:37;;;;;;;3.42;1.50;;;21.10;99.90;;;;;;4853756;29;20434;-77
2022/07/13 01:55:22;;;;;;;2.20;1.52;;;21.10;99.90;;;;;;4845850;29;20465;-76
2022/07/13 01:58:06;;;;;;;2.08;1.60;;;21.20;99.90;;;;;;4859962;29;20429;-76
2022/07/13 02:00:50;;;;;;;2.25;1.73;;;21.10;99.90;;;;;;4854255;29;20433;-76
2022/07/13 02:03:34;;;;;;;1.98;1.60;;;21.10;99.90;;;;;;4845467;29;20489;-76
2022/07/13 02:06:19;;;;;;;6.30;1.70;;;21.10;99.90;;;;;;4861053;29;20473;-79
2022/07/13 02:09:03;;;;;;;4.80;1.45;;;21.10;99.90;;;;;;4844520;29;20435;-76
2022/07/13 02:11:47;;;;;;;1.87;1.53;;;21.20;99.90;;;;;;4839852;29;20441;-76
2022/07/13 02:14:32;;;;;;;3.60;1.42;;;21.20;99.90;;;;;;4857369;29;20513;-76
2022/07/13 02:17:16;;;;;;;1.60;1.50;;;21.20;99.90;;;;;;4846211;29;20532;-76
2022/07/13 02:20:01;;;;;;;1.95;1.40;;;21.20;99.90;;;;;;4838590;29;20421;-76
2022/07/13 02:22:46;;;;;;;2.28;1.52;;;21.20;99.90;;;;;;4842667;29;20433;-76
2022/07/13 02:25:32;;;;;;;1.70;1.60;;;21.20;99.90;;;;;;4853999;29;20453;-76
2022/07/13 02:28:16;;;;;;;2.00;1.50;;;21.20;99.90;;;;;;4854665;29;20534;-76
2022/07/13 02:31:01;;;;;;;2.13;1.57;;;21.10;99.90;;;;;;4857055;29;20429;-76
2022/07/13 02:33:45;;;;;;;2.15;1.60;;;21.10;99.90;;;;;;4850435;29;20474;-76
2022/07/13 02:36:29;;;;;;;2.95;1.40;;;21.10;99.90;;;;;;4862782;29;20442;-76
2022/07/13 02:39:13;;;;;;;2.28;1.45;;;21.10;99.90;;;;;;4843934;29;20421;-76
2022/07/13 02:41:57;;;;;;;1.60;1.35;;;21.10;99.90;;;;;;4850696;29;20511;-76
2022/07/13 02:44:41;;;;;;;1.60;1.50;;;21.10;99.90;;;;;;4838251;29;20433;-76
2022/07/13 02:47:25;;;;;;;2.72;1.60;;;21.10;99.90;;;;;;4851728;29;20441;-76
2022/07/13 02:50:09;;;;;;;1.60;1.50;;;21.10;99.90;;;;;;4859158;29;20452;-76
2022/07/13 02:52:53;;;;;;;2.30;1.58;;;21.10;99.90;;;;;;4846814;29;20480;-76
2022/07/13 02:55:37;;;;;;;3.70;1.57;;;21.10;99.90;;;;;;4866923;29;20489;-76
2022/07/13 02:58:21;;;;;;;1.90;1.35;;;21.10;99.90;;;;;;4840823;29;20570;-76
2022/07/13 03:01:05;;;;;;;1.63;1.50;;;21.10;99.90;;;;;;4856249;29;20516;-76
2022/07/13 03:03:49;;;;;;;3.30;1.33;;;21.20;99.90;;;;;;4844541;29;20478;-76
2022/07/13 03:06:33;;;;;;;1.83;1.50;;;21.20;99.90;;;;;;4912012;28;20413;-76
2022/07/13 03:09:18;;;;;;;2.08;1.40;;;21.20;99.90;;;;;;4840301;29;20489;-76
2022/07/13 03:12:02;;;;;;;2.60;1.40;;;21.20;99.90;;;;;;4873422;29;20475;-76
2022/07/13 03:14:47;;;;;;;4.18;1.50;;;21.20;99.90;;;;;;4856401;29;20909;-76
2022/07/13 03:17:31;;;;;;;3.47;1.45;;;21.30;99.90;;;;;;4842212;29;20941;-76
2022/07/13 03:20:15;;;;;;;2.73;1.70;;;21.30;99.90;;;;;;4866884;29;20940;-76
2022/07/13 03:22:59;;;;;;;1.90;1.60;;;21.30;99.90;;;;;;4877858;29;20476;-76
2022/07/13 03:25:44;;;;;;;1.92;1.52;;;21.30;99.90;;;;;;4875117;29;20554;-76
2022/07/13 03:28:28;;;;;;;2.38;1.40;;;21.30;99.90;;;;;;4854785;29;20444;-76
2022/07/13 03:31:12;;;;;;;3.88;1.50;;;21.30;99.90;;;;;;4852366;29;20422;-76
2022/07/13 03:33:56;;;;;;;3.10;1.38;;;21.30;99.90;;;;;;4836281;29;20475;-76
2022/07/13 03:36:40;;;;;;;1.90;1.20;;;21.30;99.90;;;;;;4847787;29;20421;-76
2022/07/13 03:39:25;;;;;;;1.83;1.27;;;21.30;99.90;;;;;;4844011;29;20468;-76
2022/07/13 03:42:08;;;;;;;2.70;1.15;;;21.30;99.90;;;;;;4853253;29;20480;-76
2022/07/13 03:44:53;;;;;;;3.08;1.23;;;21.30;99.90;;;;;;4838943;29;20429;-76
2022/07/13 03:47:37;;;;;;;2.37;1.30;;;21.30;99.90;;;;;;4840008;29;20485;-76
2022/07/13 03:50:21;;;;;;;1.90;1.47;;;21.30;99.90;;;;;;4835451;29;20433;-76
2022/07/13 03:53:05;;;;;;;2.67;1.40;;;21.30;99.90;;;;;;4865593;29;21092;-76
2022/07/13 03:55:50;;;;;;;2.17;1.40;;;21.30;99.90;;;;;;4856409;29;20481;-76
2022/07/13 03:58:34;;;;;;;1.65;1.38;;;21.30;99.90;;;;;;4870259;29;20792;-76
2022/07/13 04:01:19;;;;;;;1.67;1.40;;;21.30;99.90;;;;;;4892174;29;20442;-76
2022/07/13 04:04:03;;;;;;;2.70;1.40;;;21.30;99.90;;;;;;4849752;29;20485;-76
2022/07/13 04:06:48;;;;;;;1.50;1.20;;;21.30;99.90;;;;;;4840639;29;20991;-76
2022/07/13 04:09:32;;;;;;;2.55;1.30;;;21.40;99.90;;;;;;4845207;29;20990;-75
2022/07/13 04:12:21;;;;;;;1.90;1.40;;;21.40;99.90;;;;;;4846890;29;20409;-76
2022/07/13 04:15:05;;;;;;;3.40;1.52;;;21.40;99.90;;;;;;4852610;29;20419;-82
2022/07/13 04:17:50;;;;;;;2.65;1.38;;;21.40;99.90;;;;;;4861391;29;20453;-77
2022/07/13 04:20:34;;;;;;;2.35;1.70;;;21.40;99.90;;;;;;4839719;29;20421;-80
2022/07/13 04:23:21;;;;;;;2.35;1.70;;;21.40;99.90;;;;;;4836161;29;20433;-81
2022/07/13 04:26:07;;;;;;;2.40;1.80;;;21.40;99.90;;;;;;4858172;29;20458;-80
2022/07/13 04:28:51;;;;;;;3.45;1.80;;;21.40;99.90;;;;;;4894820;29;20935;-80
2022/07/13 04:31:35;;;;;;;3.88;2.00;;;21.30;99.90;;;;;;4842767;29;20418;-80
2022/07/13 04:34:19;;;;;;;6.60;2.40;;;21.40;99.90;;;;;;4846375;29;20769;-81
2022/07/13 04:37:04;;;;;;;8.50;2.38;;;21.40;99.90;;;;;;4858031;29;20403;-80
2022/07/13 04:39:48;;;;;;;4.45;2.10;;;21.40;99.90;;;;;;4860631;29;20429;-79
2022/07/13 04:42:33;;;;;;;7.00;2.30;;;21.30;99.90;;;;;;4856802;29;20430;-81
2022/07/13 04:45:20;;;;;;;4.13;1.90;;;21.40;99.90;;;;;;4875284;29;20453;-79
2022/07/13 04:48:04;;;;;;;4.10;2.30;;;21.40;99.90;;;;;;4859537;29;20425;-75
2022/07/13 04:50:48;;;;;;;4.40;2.05;;;21.40;99.90;;;;;;4866480;29;20536;-74
2022/07/13 04:53:32;;;;;;;4.68;2.10;;;21.40;99.90;;;;;;4839667;29;20492;-76
2022/07/13 04:56:16;;;;;;;3.90;2.07;;;21.40;99.90;;;;;;4845904;29;20429;-77
2022/07/13 04:59:00;;;;;;;4.50;2.20;;;21.40;99.90;;;;;;4877613;29;20588;-76
2022/07/13 05:01:45;;;;;;;3.13;2.00;;;21.50;99.90;;;;;;4874698;29;20527;-76
2022/07/13 05:04:29;;;;;;;3.30;1.90;;;21.50;99.90;;;;;;4860618;29;20535;-77
2022/07/13 05:07:13;;;;;;;6.60;2.35;;;21.50;99.90;;;;;;4874197;29;20497;-76
2022/07/13 05:09:57;;;;;;;3.45;1.90;;;21.60;99.90;;;;;;4839926;29;20553;-78
2022/07/13 05:12:42;;;;;;;3.23;1.80;;;21.60;99.90;;;;;;4841181;29;20422;-79
2022/07/13 05:15:26;;;;;;;2.92;2.00;;;21.60;99.90;;;;;;4863471;29;20480;-80
2022/07/13 05:18:10;;;;;;;3.60;1.65;;;21.60;99.90;;;;;;4840405;29;20417;-77
2022/07/13 05:20:54;;;;;;;3.40;1.80;;;21.60;99.90;;;;;;4849272;29;20464;-78
2022/07/13 05:23:38;;;;;;;3.00;1.98;;;21.70;99.90;;;;;;4855592;29;20463;-78
2022/07/13 05:26:23;;;;;;;5.15;2.00;;;21.70;99.90;;;;;;4853254;29;20433;-78
2022/07/13 05:29:07;;;;;;;3.90;1.90;;;21.80;99.90;;;;;;4849201;29;20790;-78
2022/07/13 05:31:52;;;;;;;2.00;1.90;;;21.80;99.90;;;;;;4862568;29;20427;-78
2022/07/13 05:34:36;;;;;;;2.70;1.73;;;21.80;99.90;;;;;;4853678;29;20417;-77
2022/07/13 05:37:21;;;;;;;3.38;1.95;;;21.90;99.90;;;;;;4845001;29;20532;-78
2022/07/13 05:40:09;;;;;;;3.43;2.10;;;21.90;99.90;;;;;;4850407;29;20424;-78
2022/07/13 05:42:56;;;;;;;4.97;1.80;;;22.00;99.90;;;;;;4853148;29;20493;-79
2022/07/13 05:45:41;;;;;;;2.80;1.85;;;22.00;99.90;;;;;;4857442;29;20441;-78
2022/07/13 05:48:25;;;;;;;5.20;1.88;;;22.10;99.90;;;;;;4883166;29;20437;-79
2022/07/13 05:51:09;;;;;;;2.53;1.90;;;22.20;99.90;;;;;;4854811;29;20441;-78
2022/07/13 05:53:53;;;;;;;3.20;1.63;;;22.20;99.90;;;;;;4843825;29;20517;-78
2022/07/13 05:56:39;;;;;;;5.30;2.20;;;22.20;99.90;;;;;;4845652;29;20431;-81
2022/07/13 05:59:23;;;;;;;3.38;1.83;;;22.30;99.90;;;;;;4868339;29;20861;-81
2022/07/13 06:02:08;;;;;;;3.47;1.90;;;22.30;99.90;;;;;;4857813;29;20518;-81
2022/07/13 06:04:52;;;;;;;7.83;1.93;;;22.40;99.90;;;;;;4865460;29;20425;-81
2022/07/13 06:07:36;;;;;;;5.22;1.75;;;22.40;99.90;;;;;;4890768;29;20431;-81
2022/07/13 06:10:20;;;;;;;3.58;1.80;;;22.50;99.90;;;;;;4857396;29;20512;-77
2022/07/13 06:13:04;;;;;;;3.25;2.00;;;22.60;99.90;;;;;;4860867;29;20446;-79
2022/07/13 06:15:49;;;;;;;3.83;1.70;;;22.60;99.90;;;;;;4852822;29;20458;-80
2022/07/13 06:18:33;;;;;;;3.60;1.70;;;22.60;99.90;;;;;;4853697;29;20545;-81
2022/07/13 06:21:17;;;;;;;2.17;1.70;;;22.70;99.90;;;;;;4868305;29;21066;-78
2022/07/13 06:24:02;;;;;;;2.95;1.50;;;22.70;99.90;;;;;;4841546;29;20772;-78
2022/07/13 06:26:46;;;;;;;3.80;1.40;;;22.70;99.90;;;;;;4845110;29;20437;-78
2022/07/13 06:29:30;;;;;;;4.07;1.45;;;22.80;99.90;;;;;;4850837;29;20497;-78
2022/07/13 06:32:14;;;;;;;2.92;1.63;;;22.90;99.90;;;;;;4856968;29;20417;-77
2022/07/13 06:34:59;;;;;;;1.85;1.50;;;23.00;99.90;;;;;;4874431;29;20417;-78
2022/07/13 06:37:43;;;;;;;3.60;1.50;;;23.00;99.90;;;;;;4853935;29;20458;-78
2022/07/13 06:40:27;;;;;;;2.88;1.30;;;23.10;99.90;;;;;;4856632;29;20433;-78
2022/07/13 06:43:12;;;;;;;1.85;1.30;;;23.20;99.90;;;;;;4839356;29;20430;-78
2022/07/13 06:45:56;;;;;;;3.40;1.50;;;23.30;99.90;;;;;;4875497;28;20417;-78
2022/07/13 06:48:40;;;;;;;4.60;1.38;;;23.30;99.90;;;;;;4888085;29;20501;-77
2022/07/13 06:51:24;;;;;;;4.68;1.30;;;23.40;99.90;;;;;;4894888;29;20467;-83
2022/07/13 06:54:09;;;;;;;4.05;1.30;;;23.50;99.90;;;;;;4858387;29;20536;-79
2022/07/13 06:56:53;;;;;;;3.30;1.30;;;23.60;99.90;;;;;;4916807;29;20424;-79
2022/07/13 06:59:37;;;;;;;5.00;1.38;;;23.60;99.90;;;;;;4862161;29;20434;-78
2022/07/13 07:02:22;;;;;;;8.70;1.60;;;23.70;99.90;;;;;;4855699;29;20424;-79
2022/07/13 07:05:09;;;;;;;3.83;1.50;;;23.80;99.90;;;;;;4865093;29;20465;-79
2022/07/13 07:07:53;;;;;;;2.42;1.33;;;23.90;99.90;;;;;;4874570;29;20454;-79
2022/07/13 07:10:38;;;;;;;4.63;1.40;;;24.00;99.90;;;;;;4867249;29;20421;-79
2022/07/13 07:13:22;;;;;;;3.90;1.63;;;24.10;99.90;;;;;;4885493;29;20405;-79
2022/07/13 07:16:06;;;;;;;2.45;1.25;;;24.20;99.90;;;;;;4895243;29;20450;-78
2022/07/13 07:18:50;;;;;;;6.07;1.40;;;24.30;99.90;;;;;;4875356;29;20442;-79
2022/07/13 07:21:34;;;;;;;2.00;1.60;;;24.50;99.90;;;;;;4862850;29;20481;-79
2022/07/13 07:24:18;;;;;;;4.07;1.53;;;24.60;99.90;;;;;;4853232;29;20435;-79
2022/07/13 07:27:05;;;;;;;3.40;1.40;;;24.70;99.90;;;;;;4867027;29;20421;-79
2022/07/13 07:29:49;;;;;;;3.03;1.55;;;24.80;99.90;;;;;;4845600;29;20437;-79
2022/07/13 07:32:33;;;;;;;3.70;1.50;;;24.90;99.90;;;;;;4851443;29;20412;-79
2022/07/13 07:35:18;;;;;;;4.00;1.50;;;24.90;99.90;;;;;;4889294;29;20399;-79
2022/07/13 07:38:02;;;;;;;3.65;1.50;;;25.00;99.90;;;;;;4879672;29;20398;-79
2022/07/13 07:40:46;;;;;;;3.22;1.60;;;25.10;99.90;;;;;;4849176;29;20464;-79
2022/07/13 07:43:30;;;;;;;3.13;1.63;;;25.20;99.90;;;;;;4855235;29;20400;-79
2022/07/13 07:46:14;;;;;;;2.70;1.80;;;25.30;99.90;;;;;;4850843;29;20405;-79
2022/07/13 07:48:59;;;;;;;8.10;1.50;;;25.40;99.90;;;;;;4856498;29;20441;-79
2022/07/13 07:51:43;;;;;;;4.63;1.60;;;25.40;99.90;;;;;;4860984;29;20438;-79
2022/07/13 07:54:28;;;;;;;3.47;1.73;;;25.50;99.90;;;;;;4865617;29;20457;-79
2022/07/13 07:57:13;;;;;;;2.22;1.52;;;25.50;99.90;;;;;;4862285;29;20405;-79
2022/07/13 07:59:57;;;;;;;6.43;1.60;;;25.60;99.90;;;;;;4851313;29;20449;-78
2022/07/13 08:02:43;;;;;;;3.78;1.73;;;25.60;99.90;;;;;;4842393;29;20421;-79
2022/07/13 08:05:27;;;;;;;5.13;1.70;;;25.70;99.90;;;;;;4868060;29;20480;-79
2022/07/13 08:08:11;;;;;;;3.85;1.70;;;25.80;99.90;;;;;;4852061;29;20424;-79
2022/07/13 08:10:56;;;;;;;5.43;1.60;;;25.90;99.90;;;;;;4892154;29;20485;-79
2022/07/13 08:13:40;;;;;;;3.83;1.50;;;26.10;99.90;;;;;;4841357;29;20495;-78
2022/07/13 08:16:24;;;;;;;5.25;1.70;;;26.30;99.90;;;;;;4896971;29;20453;-79
2022/07/13 08:19:08;;;;;;;4.70;1.52;;;26.30;99.90;;;;;;4884465;29;20416;-79
2022/07/13 08:21:53;;;;;;;3.90;1.60;;;26.30;99.90;;;;;;4864116;29;20469;-79
2022/07/13 08:24:37;;;;;;;5.00;1.70;;;26.40;99.90;;;;;;4848041;29;20424;-79
2022/07/13 08:27:21;;;;;;;3.55;1.58;;;26.40;99.90;;;;;;4858520;29;20408;-79
2022/07/13 08:30:05;;;;;;;8.85;1.60;;;26.50;99.90;;;;;;4861870;29;20438;-79
2022/07/13 08:32:49;;;;;;;2.45;1.70;;;26.50;99.90;;;;;;4897707;29;20425;-79
2022/07/13 08:38:38;;;;;;;3.65;1.67;;;26.50;99.90;;;;;;4853842;29;20506;-79
2022/07/13 08:41:23;;;;;;;8.50;2.03;;;26.50;99.90;;;;;;4868702;29;20412;-79
2022/07/13 08:44:07;;;;;;;7.27;1.90;;;26.60;99.90;;;;;;4850102;29;20405;-79
2022/07/13 08:46:52;;;;;;;5.03;1.98;;;26.70;99.90;;;;;;4843834;29;20462;-80
2022/07/13 08:49:36;;;;;;;2.85;1.80;;;26.70;99.90;;;;;;4855252;29;21153;-79
2022/07/13 08:52:20;;;;;;;5.80;1.95;;;26.80;99.90;;;;;;4873753;29;20461;-80
2022/07/13 08:55:06;;;;;;;3.72;1.95;;;26.90;99.90;;;;;;4872572;29;20493;-79
2022/07/13 08:57:51;;;;;;;3.70;1.98;;;27.00;99.90;;;;;;4848387;29;20414;-79
2022/07/13 09:00:35;;;;;;;4.38;2.35;;;27.10;99.90;;;;;;4845396;29;20442;-79
2022/07/13 09:03:20;;;;;;;5.82;1.90;;;27.10;99.90;;;;;;4848016;29;20469;-80
2022/07/13 09:06:05;;;;;;;4.72;2.20;;;27.10;99.90;;;;;;4868268;29;20427;-80
2022/07/13 09:08:49;;;;;;;6.25;2.20;;;27.10;99.90;;;;;;4855836;29;21249;-80
2022/07/13 09:11:34;;;;;;;3.17;1.85;;;27.00;99.90;;;;;;4852727;29;20406;-80
2022/07/13 09:14:25;;;;;;;5.00;2.10;;;27.10;99.90;;;;;;4888644;29;20440;-80
2022/07/13 09:17:31;;;;;;;5.78;2.00;;;27.00;99.90;;;;;;4882595;29;20440;-80
2022/07/13 09:20:15;;;;;;;3.13;2.08;;;27.00;99.90;;;;;;4855031;29;20424;-79
2022/07/13 09:23:01;;;;;;;5.90;2.40;;;26.90;99.90;;;;;;4895418;29;20425;-80
2022/07/13 09:25:47;;;;;;;3.83;2.17;;;26.90;99.90;;;;;;4851054;29;20522;-80
2022/07/13 09:28:44;;;;;;;2.10;1.90;;;27.00;99.90;;;;;;4887774;29;20413;-80
2022/07/13 09:31:28;;;;;;;4.90;2.40;;;27.00;99.90;;;;;;4881649;29;20410;-80
2022/07/13 09:34:12;;;;;;;4.07;2.15;;;27.00;99.90;;;;;;4866645;29;20401;-80
2022/07/13 09:37:10;;;;;;;3.28;2.20;;;27.10;99.90;;;;;;4896775;29;20437;-80
2022/07/13 09:39:57;;;;;;;4.68;2.20;;;27.10;99.90;;;;;;4870248;29;20487;-80
2022/07/13 09:42:43;;;;;;;4.90;2.35;;;27.20;99.90;;;;;;4866191;29;20454;-80
2022/07/13 09:48:31;;;;;;;6.13;2.17;;;27.20;99.90;;;;;;4861001;29;20975;-80
2022/07/13 09:51:24;;;;;;;4.70;2.00;;;27.20;99.90;;;;;;4883904;29;20441;-80
2022/07/13 09:54:08;;;;;;;6.15;2.28;;;27.20;99.90;;;;;;4848966;29;20489;-80
2022/07/13 09:56:59;;;;;;;4.63;2.00;;;27.30;99.90;;;;;;4868023;29;20406;-79
2022/07/13 09:59:44;;;;;;;4.97;1.98;;;27.40;99.90;;;;;;4855126;29;20470;-80
2022/07/13 10:02:29;;;;;;;3.20;1.90;;;27.40;99.90;;;;;;4857778;29;20525;-80
2022/07/13 10:05:15;;;;;;;5.05;1.75;;;27.30;99.90;;;;;;4882994;29;20461;-80
2022/07/13 10:08:01;;;;;;;4.95;1.73;;;27.40;99.90;;;;;;4849953;29;20457;-80
2022/07/13 10:10:46;;;;;;;3.95;1.58;;;27.40;99.90;;;;;;4845810;29;20426;-79
2022/07/13 10:13:33;;;;;;;3.47;1.60;;;27.50;99.90;;;;;;4868875;29;20496;-80
2022/07/13 10:16:17;;;;;;;2.00;1.60;;;27.50;99.90;;;;;;4861622;29;20453;-80
2022/07/13 10:19:05;;;;;;;6.73;2.00;;;27.60;99.90;;;;;;4868873;29;20467;-78
2022/07/13 10:22:09;;;;;;;2.43;1.60;;;27.70;99.90;;;;;;4869080;29;20505;-78
2022/07/13 10:24:57;;;;;;;2.80;1.63;;;27.80;99.90;;;;;;4862096;29;20514;-78
2022/07/13 10:27:41;;;;;;;4.47;1.60;;;27.70;99.90;;;;;;4840413;29;20453;-79
2022/07/13 10:30:26;;;;;;;2.28;1.45;;;27.80;99.90;;;;;;4854708;29;20420;-79
2022/07/13 10:33:21;;;;;;;3.28;1.80;;;27.80;99.90;;;;;;4874842;29;20440;-80
2022/07/13 10:36:06;;;;;;;3.85;1.45;;;27.80;99.90;;;;;;4849953;29;20413;-80
2022/07/13 10:39:10;;;;;;;4.85;1.60;;;27.90;99.90;;;;;;4867481;28;20494;-80
2022/07/13 10:42:10;;;;;;;4.13;1.97;;;28.00;99.90;;;;;;4875433;29;20543;-79
2022/07/13 10:44:54;;;;;;;4.97;1.83;;;28.10;99.90;;;;;;4850125;29;20499;-80
2022/07/13 10:47:45;;;;;;;2.75;1.85;;;28.20;99.90;;;;;;4868164;29;20568;-80
2022/07/13 10:50:36;;;;;;;4.82;2.00;;;28.20;99.90;;;;;;4859992;29;20467;-79
2022/07/13 10:53:42;;;;;;;2.47;1.88;;;28.30;99.90;;;;;;4855589;29;20564;-80
2022/07/13 10:56:26;;;;;;;3.17;2.00;;;28.30;99.90;;;;;;4859413;29;20437;-80
2022/07/13 10:59:44;;;;;;;4.38;2.13;;;28.30;99.90;;;;;;4873059;29;20481;-80
2022/07/13 11:02:50;;;;;;;3.70;2.17;;;28.50;99.90;;;;;;4889010;29;20412;-80
2022/07/13 11:05:35;;;;;;;3.67;2.28;;;28.60;99.90;;;;;;4882751;29;20452;-79
2022/07/13 11:08:29;;;;;;;2.33;1.95;;;28.60;99.90;;;;;;4866045;29;20409;-80
2022/07/13 11:11:15;;;;;;;4.22;2.10;;;28.70;99.90;;;;;;4857404;29;20432;-80
2022/07/13 11:13:59;;;;;;;5.53;2.40;;;28.60;99.90;;;;;;4889532;29;20475;-80
2022/07/13 11:16:50;;;;;;;5.47;2.45;;;28.60;99.90;;;;;;4848705;29;20460;-79
2022/07/13 11:19:53;;;;;;;7.10;2.30;;;28.50;99.90;;;;;;4862804;29;20433;-79
2022/07/13 11:26:16;;;;;;;3.33;2.03;;;28.50;99.90;;;;;;4854836;29;21404;-79
2022/07/13 11:29:10;;;;;;;6.27;2.47;;;28.70;99.90;;;;;;4867762;28;20489;-80
2022/07/13 11:31:59;;;;;;;3.95;2.28;;;28.80;99.90;;;;;;4903959;29;20539;-80
2022/07/13 11:34:43;;;;;;;3.92;2.35;;;29.00;99.90;;;;;;4847865;29;20492;-80
2022/07/13 11:37:27;;;;;;;4.75;2.45;;;29.10;99.90;;;;;;4847523;29;20417;-80
2022/07/13 11:40:26;;;;;;;6.68;2.65;;;29.10;99.90;;;;;;4848199;29;20473;-80
2022/07/13 11:43:10;;;;;;;10.40;2.80;;;29.10;99.90;;;;;;4846852;29;20405;-80
2022/07/13 11:45:55;;;;;;;9.60;2.90;;;29.20;99.90;;;;;;4862177;29;20458;-79
2022/07/13 11:48:39;;;;;;;4.97;2.72;;;29.10;99.90;;;;;;4879600;29;20493;-80
2022/07/13 11:51:23;;;;;;;8.67;3.07;;;29.10;99.90;;;;;;4860222;29;20426;-80
2022/07/13 11:54:09;;;;;;;6.63;3.13;;;29.00;99.90;;;;;;4883185;29;20429;-80
2022/07/13 11:56:56;;;;;;;4.87;3.13;;;28.90;99.90;;;;;;4882759;29;20429;-80
2022/07/13 11:59:42;;;;;;;10.88;3.25;;;28.90;99.90;;;;;;4856234;29;20435;-80
2022/07/13 12:02:26;;;;;;;6.87;2.87;;;28.80;99.90;;;;;;4896684;29;20412;-80
2022/07/13 12:05:11;;;;;;;9.00;3.00;;;28.90;99.90;;;;;;4878063;29;20405;-79
2022/07/13 12:08:03;;;;;;;6.78;2.92;;;29.10;99.90;;;;;;4869574;29;20420;-80
2022/07/13 12:10:47;;;;;;;5.22;2.85;;;29.10;99.90;;;;;;4879670;29;20466;-79
2022/07/13 12:13:36;;;;;;;5.78;2.92;;;29.00;99.90;;;;;;4884553;29;20426;-80
2022/07/13 12:16:21;;;;;;;4.70;3.00;;;29.00;99.90;;;;;;4886001;29;20425;-80
2022/07/13 12:19:08;;;;;;;3.78;2.92;;;28.90;99.90;;;;;;4875067;28;20431;-80
2022/07/13 12:21:57;;;;;;;7.30;3.20;;;28.90;99.90;;;;;;4877575;29;20412;-80
2022/07/13 12:24:45;;;;;;;4.43;2.60;;;28.90;99.90;;;;;;4910285;28;20397;-81
2022/07/13 12:27:31;;;;;;;5.07;2.65;;;28.90;99.90;;;;;;4872651;29;20416;-81
2022/07/13 12:30:15;;;;;;;4.18;2.50;;;28.80;99.90;;;;;;4866304;29;20475;-80
2022/07/13 12:33:10;;;;;;;4.32;2.60;;;28.80;99.90;;;;;;4874625;29;20525;-81
2022/07/13 12:36:04;;;;;;;8.00;3.13;;;28.90;99.90;;;;;;4853421;29;20487;-81
2022/07/13 12:38:53;;;;;;;4.15;2.40;;;29.00;99.90;;;;;;4855179;29;20470;-81
2022/07/13 12:41:44;;;;;;;5.20;2.83;;;29.10;99.90;;;;;;4892378;29;20418;-80
2022/07/13 12:44:30;;;;;;;3.65;2.95;;;29.30;99.90;;;;;;4898195;28;20396;-80
2022/07/13 12:47:14;;;;;;;5.63;2.83;;;29.40;99.90;;;;;;4859372;29;20413;-79
2022/07/13 12:49:58;;;;;;;4.80;2.80;;;29.40;99.90;;;;;;4877547;29;20773;-79
2022/07/13 12:52:59;;;;;;;5.45;2.95;;;29.40;99.90;;;;;;4870496;29;20460;-79
2022/07/13 12:55:56;;;;;;;11.68;3.28;;;29.30;99.90;;;;;;4909832;29;20477;-79
2022/07/13 12:59:06;;;;;;;5.23;3.10;;;29.20;99.90;;;;;;4845789;29;20533;-79
2022/07/13 13:01:50;;;;;;;12.70;3.42;;;29.20;99.90;;;;;;4900573;29;20484;-79
2022/07/13 13:04:35;;;;;;;8.15;3.30;;;29.20;99.90;;;;;;4864936;29;20428;-79
2022/07/13 13:07:19;;;;;;;9.98;3.15;;;29.10;99.90;;;;;;4845132;29;20447;-79
2022/07/13 13:10:05;;;;;;;4.05;3.25;;;29.10;99.90;;;;;;4857101;29;20505;-80
2022/07/13 13:12:49;;;;;;;4.47;3.20;;;29.00;99.90;;;;;;4866866;29;20477;-80
2022/07/13 13:15:34;;;;;;;7.35;3.38;;;29.00;99.90;;;;;;4856299;29;20466;-80
2022/07/13 13:18:19;;;;;;;26.90;4.53;;;28.90;99.90;;;;;;4862787;29;20405;-79
2022/07/13 13:21:03;;;;;;;6.35;3.30;;;28.90;99.90;;;;;;4845937;29;20426;-79
2022/07/13 13:23:47;;;;;;;4.68;2.90;;;28.90;99.90;;;;;;4897255;29;20428;-79
2022/07/13 13:26:35;;;;;;;11.48;3.20;;;28.80;99.90;;;;;;4880716;29;20457;-79
2022/07/13 13:32:23;;;;;;;5.95;3.00;;;28.70;99.90;;;;;;4888451;29;20428;-79
2022/07/13 13:35:08;;;;;;;3.20;2.90;;;28.60;99.90;;;;;;4873323;29;20808;-79
2022/07/13 13:37:52;;;;;;;6.47;2.67;;;28.70;99.90;;;;;;4848852;29;20471;-79
2022/07/13 13:40:41;;;;;;;3.88;2.80;;;28.70;99.90;;;;;;4851048;29;20430;-79
2022/07/13 13:43:25;;;;;;;5.47;2.72;;;28.70;99.90;;;;;;4854137;29;20763;-79
2022/07/13 13:46:09;;;;;;;4.32;2.65;;;28.80;99.90;;;;;;4911997;28;20761;-79
2022/07/13 13:48:53;;;;;;;9.15;2.58;;;28.70;99.90;;;;;;4886867;29;20980;-80
2022/07/13 13:51:38;;;;;;;6.47;2.20;;;28.80;99.90;;;;;;4858535;29;20418;-80
2022/07/13 13:54:23;;;;;;;3.60;2.10;;;28.80;99.90;;;;;;4853150;29;20413;-78
2022/07/13 13:57:07;;;;;;;2.80;2.15;;;28.80;99.90;;;;;;4864974;29;20472;-80
2022/07/13 13:59:52;;;;;;;5.15;2.20;;;28.70;99.90;;;;;;4886036;29;20437;-81
2022/07/13 14:02:37;;;;;;;4.45;2.30;;;28.60;99.90;;;;;;4863322;29;20418;-80
2022/07/13 14:05:21;;;;;;;3.30;2.00;;;28.50;99.90;;;;;;4867026;29;20405;-80
2022/07/13 14:08:05;;;;;;;3.97;2.00;;;28.50;99.90;;;;;;4858675;29;20401;-79
2022/07/13 14:10:49;;;;;;;4.15;2.13;;;28.50;99.90;;;;;;4878499;29;20439;-80
2022/07/13 14:13:33;;;;;;;3.53;1.90;;;28.40;99.90;;;;;;4851370;29;20465;-80
2022/07/13 14:16:18;;;;;;;6.03;1.75;;;28.40;99.90;;;;;;4876317;29;20497;-80
2022/07/13 14:19:05;;;;;;;2.63;1.90;;;28.30;99.90;;;;;;4856148;29;20473;-79
2022/07/13 14:21:50;;;;;;;2.78;1.92;;;28.10;99.90;;;;;;4870817;29;20453;-80
2022/07/13 14:24:34;;;;;;;3.13;1.80;;;28.10;99.90;;;;;;4866796;29;20413;-80
2022/07/13 14:27:19;;;;;;;2.28;1.60;;;28.20;99.90;;;;;;4852113;29;20417;-80
2022/07/13 14:30:03;;;;;;;4.88;1.92;;;28.20;99.90;;;;;;4853038;29;20406;-80
2022/07/13 14:32:48;;;;;;;2.78;1.77;;;28.30;99.90;;;;;;4867439;29;20424;-80